sensor_id;sensor_type;location;lat;lon;timestamp;P1;durP1;ratioP1;P2;durP2;ratioP2
27758;SDS011;15148;48.972;12.794;2023-08-07T00:01:09;4.80;;;2.28;;
27758;SDS011;15148;48.972;12.794;2023-08-07T00:06:11;2.20;;;1.65;;
27758;SDS011;15148;48.972;12.794;2023-08-07T00:11:13;1.70;;;1.60;;
27758;SDS011;15148;48.972;12.794;2023-08-07T00:16:15;4.95;;;1.98;;
27758;SDS011;15148;48.972;12.794;2023-08-07T00:21:17;4.60;;;1.90;;
27758;SDS011;15148;48.972;12.794;2023-08-07T00:26:19;2.60;;;1.85;;
27758;SDS011;15148;48.972;12.794;2023-08-07T00:31:21;3.35;;;1.90;;
27758;SDS011;15148;48.972;12.794;2023-08-07T00:36:22;1.88;;;1.77;;
27758;SDS011;15148;48.972;12.794;2023-08-07T00:41:25;2.25;;;1.77;;
27758;SDS011;15148;48.972;12.794;2023-08-07T00:46:27;5.25;;;1.88;;
27758;SDS011;15148;48.972;12.794;2023-08-07T00:51:30;3.15;;;2.15;;
27758;SDS011;15148;48.972;12.794;2023-08-07T00:56:33;3.40;;;2.20;;
27758;SDS011;15148;48.972;12.794;2023-08-07T01:01:35;1.58;;;1.48;;
27758;SDS011;15148;48.972;12.794;2023-08-07T01:06:37;2.55;;;2.35;;
27758;SDS011;15148;48.972;12.794;2023-08-07T01:11:44;1.40;;;1.27;;
27758;SDS011;15148;48.972;12.794;2023-08-07T01:17:09;2.55;;;1.20;;
27758;SDS011;15148;48.972;12.794;2023-08-07T01:22:14;2.83;;;1.40;;
27758;SDS011;15148;48.972;12.794;2023-08-07T01:32:28;1.80;;;1.17;;
27758;SDS011;15148;48.972;12.794;2023-08-07T01:37:36;2.72;;;1.00;;
27758;SDS011;15148;48.972;12.794;2023-08-07T01:42:41;1.00;;;0.90;;
27758;SDS011;15148;48.972;12.794;2023-08-07T01:47:43;1.38;;;1.05;;
27758;SDS011;15148;48.972;12.794;2023-08-07T01:52:46;0.88;;;0.88;;
27758;SDS011;15148;48.972;12.794;2023-08-07T01:57:48;0.68;;;0.60;;
27758;SDS011;15148;48.972;12.794;2023-08-07T02:02:50;3.50;;;0.90;;
27758;SDS011;15148;48.972;12.794;2023-08-07T02:07:52;0.95;;;0.65;;
27758;SDS011;15148;48.972;12.794;2023-08-07T02:12:56;0.82;;;0.75;;
27758;SDS011;15148;48.972;12.794;2023-08-07T02:18:00;3.05;;;0.47;;
27758;SDS011;15148;48.972;12.794;2023-08-07T02:23:02;0.95;;;0.85;;
27758;SDS011;15148;48.972;12.794;2023-08-07T02:28:04;0.90;;;0.47;;
27758;SDS011;15148;48.972;12.794;2023-08-07T02:33:07;0.30;;;0.30;;
27758;SDS011;15148;48.972;12.794;2023-08-07T02:38:09;0.75;;;0.63;;
27758;SDS011;15148;48.972;12.794;2023-08-07T02:43:11;3.10;;;0.90;;
27758;SDS011;15148;48.972;12.794;2023-08-07T02:48:13;1.30;;;0.60;;
27758;SDS011;15148;48.972;12.794;2023-08-07T02:53:15;1.20;;;0.50;;
27758;SDS011;15148;48.972;12.794;2023-08-07T02:58:17;0.50;;;0.50;;
27758;SDS011;15148;48.972;12.794;2023-08-07T03:03:19;0.50;;;0.50;;
27758;SDS011;15148;48.972;12.794;2023-08-07T03:08:21;0.50;;;0.50;;
27758;SDS011;15148;48.972;12.794;2023-08-07T03:13:23;1.00;;;0.40;;
27758;SDS011;15148;48.972;12.794;2023-08-07T03:18:26;2.20;;;0.60;;
27758;SDS011;15148;48.972;12.794;2023-08-07T03:23:29;1.67;;;0.40;;
27758;SDS011;15148;48.972;12.794;2023-08-07T03:28:33;1.88;;;0.32;;
27758;SDS011;15148;48.972;12.794;2023-08-07T03:33:36;0.65;;;0.63;;
27758;SDS011;15148;48.972;12.794;2023-08-07T03:38:39;0.70;;;0.70;;
27758;SDS011;15148;48.972;12.794;2023-08-07T03:43:41;1.70;;;0.57;;
27758;SDS011;15148;48.972;12.794;2023-08-07T03:48:44;0.50;;;0.50;;
27758;SDS011;15148;48.972;12.794;2023-08-07T03:53:46;0.40;;;0.40;;
27758;SDS011;15148;48.972;12.794;2023-08-07T03:58:48;0.50;;;0.40;;
27758;SDS011;15148;48.972;12.794;2023-08-07T04:03:54;0.28;;;0.22;;
27758;SDS011;15148;48.972;12.794;2023-08-07T04:08:56;0.85;;;0.30;;
27758;SDS011;15148;48.972;12.794;2023-08-07T04:13:58;1.13;;;0.63;;
27758;SDS011;15148;48.972;12.794;2023-08-07T04:19:00;1.55;;;0.45;;
27758;SDS011;15148;48.972;12.794;2023-08-07T04:24:02;0.80;;;0.52;;
27758;SDS011;15148;48.972;12.794;2023-08-07T04:29:11;2.58;;;0.45;;
27758;SDS011;15148;48.972;12.794;2023-08-07T04:34:14;0.60;;;0.60;;
27758;SDS011;15148;48.972;12.794;2023-08-07T04:39:16;0.50;;;0.40;;
27758;SDS011;15148;48.972;12.794;2023-08-07T04:44:20;0.45;;;0.43;;
27758;SDS011;15148;48.972;12.794;2023-08-07T04:49:21;0.55;;;0.40;;
27758;SDS011;15148;48.972;12.794;2023-08-07T04:54:23;1.45;;;0.60;;
27758;SDS011;15148;48.972;12.794;2023-08-07T04:59:25;2.78;;;0.80;;
27758;SDS011;15148;48.972;12.794;2023-08-07T05:04:28;2.00;;;0.90;;
27758;SDS011;15148;48.972;12.794;2023-08-07T05:09:30;0.60;;;0.60;;
27758;SDS011;15148;48.972;12.794;2023-08-07T05:14:32;0.80;;;0.55;;
27758;SDS011;15148;48.972;12.794;2023-08-07T05:19:34;1.15;;;0.50;;
27758;SDS011;15148;48.972;12.794;2023-08-07T05:24:36;2.95;;;1.10;;
27758;SDS011;15148;48.972;12.794;2023-08-07T05:29:41;0.98;;;0.77;;
27758;SDS011;15148;48.972;12.794;2023-08-07T05:34:46;0.60;;;0.60;;
27758;SDS011;15148;48.972;12.794;2023-08-07T05:39:48;1.38;;;1.27;;
27758;SDS011;15148;48.972;12.794;2023-08-07T05:44:50;2.25;;;1.05;;
27758;SDS011;15148;48.972;12.794;2023-08-07T05:49:52;2.58;;;0.90;;
27758;SDS011;15148;48.972;12.794;2023-08-07T05:54:54;2.75;;;1.00;;
27758;SDS011;15148;48.972;12.794;2023-08-07T05:59:56;2.05;;;0.90;;
27758;SDS011;15148;48.972;12.794;2023-08-07T06:04:58;3.25;;;2.22;;
27758;SDS011;15148;48.972;12.794;2023-08-07T06:09:59;1.33;;;0.88;;
27758;SDS011;15148;48.972;12.794;2023-08-07T06:15:02;1.23;;;1.10;;
27758;SDS011;15148;48.972;12.794;2023-08-07T06:20:04;2.72;;;2.38;;
27758;SDS011;15148;48.972;12.794;2023-08-07T06:25:10;1.13;;;1.10;;
27758;SDS011;15148;48.972;12.794;2023-08-07T06:30:12;1.17;;;1.10;;
27758;SDS011;15148;48.972;12.794;2023-08-07T06:35:15;3.25;;;1.05;;
27758;SDS011;15148;48.972;12.794;2023-08-07T06:40:17;0.80;;;0.80;;
27758;SDS011;15148;48.972;12.794;2023-08-07T06:45:19;1.50;;;0.90;;
27758;SDS011;15148;48.972;12.794;2023-08-07T06:50:21;2.08;;;0.95;;
27758;SDS011;15148;48.972;12.794;2023-08-07T06:55:23;1.08;;;0.88;;
27758;SDS011;15148;48.972;12.794;2023-08-07T07:00:25;1.17;;;0.90;;
27758;SDS011;15148;48.972;12.794;2023-08-07T07:05:27;1.70;;;1.00;;
27758;SDS011;15148;48.972;12.794;2023-08-07T07:10:29;1.60;;;1.00;;
27758;SDS011;15148;48.972;12.794;2023-08-07T07:15:31;1.60;;;0.70;;
27758;SDS011;15148;48.972;12.794;2023-08-07T07:20:33;19.83;;;15.63;;
27758;SDS011;15148;48.972;12.794;2023-08-07T07:25:35;1.60;;;1.10;;
27758;SDS011;15148;48.972;12.794;2023-08-07T07:30:38;1.15;;;0.82;;
27758;SDS011;15148;48.972;12.794;2023-08-07T07:35:40;1.25;;;1.10;;
27758;SDS011;15148;48.972;12.794;2023-08-07T07:40:42;1.05;;;0.93;;
27758;SDS011;15148;48.972;12.794;2023-08-07T07:45:44;1.20;;;1.10;;
27758;SDS011;15148;48.972;12.794;2023-08-07T07:50:46;1.58;;;1.13;;
27758;SDS011;15148;48.972;12.794;2023-08-07T07:55:48;1.90;;;1.00;;
27758;SDS011;15148;48.972;12.794;2023-08-07T08:00:50;1.35;;;1.10;;
27758;SDS011;15148;48.972;12.794;2023-08-07T08:05:54;1.25;;;1.05;;
27758;SDS011;15148;48.972;12.794;2023-08-07T08:10:57;1.38;;;1.27;;
27758;SDS011;15148;48.972;12.794;2023-08-07T08:16:02;1.38;;;1.27;;
27758;SDS011;15148;48.972;12.794;2023-08-07T08:21:04;2.85;;;2.10;;
27758;SDS011;15148;48.972;12.794;2023-08-07T08:26:07;2.00;;;1.75;;
27758;SDS011;15148;48.972;12.794;2023-08-07T08:31:09;1.70;;;1.45;;
27758;SDS011;15148;48.972;12.794;2023-08-07T08:36:11;1.90;;;1.52;;
27758;SDS011;15148;48.972;12.794;2023-08-07T08:41:13;2.45;;;1.80;;
27758;SDS011;15148;48.972;12.794;2023-08-07T08:46:15;2.22;;;1.80;;
27758;SDS011;15148;48.972;12.794;2023-08-07T08:51:20;3.50;;;1.70;;
27758;SDS011;15148;48.972;12.794;2023-08-07T08:56:23;1.88;;;1.77;;
27758;SDS011;15148;48.972;12.794;2023-08-07T09:01:25;3.58;;;1.63;;
27758;SDS011;15148;48.972;12.794;2023-08-07T09:06:28;1.75;;;1.65;;
27758;SDS011;15148;48.972;12.794;2023-08-07T09:11:33;1.40;;;1.30;;
27758;SDS011;15148;48.972;12.794;2023-08-07T09:16:36;1.83;;;1.73;;
27758;SDS011;15148;48.972;12.794;2023-08-07T09:21:39;3.83;;;2.10;;
27758;SDS011;15148;48.972;12.794;2023-08-07T09:26:41;2.97;;;2.42;;
27758;SDS011;15148;48.972;12.794;2023-08-07T09:31:46;2.55;;;2.35;;
27758;SDS011;15148;48.972;12.794;2023-08-07T09:36:49;1.90;;;1.80;;
27758;SDS011;15148;48.972;12.794;2023-08-07T09:41:51;1.98;;;1.70;;
27758;SDS011;15148;48.972;12.794;2023-08-07T09:46:53;1.73;;;1.48;;
27758;SDS011;15148;48.972;12.794;2023-08-07T09:51:55;2.25;;;1.60;;
27758;SDS011;15148;48.972;12.794;2023-08-07T09:56:57;2.10;;;1.33;;
27758;SDS011;15148;48.972;12.794;2023-08-07T10:02:01;1.92;;;1.40;;
27758;SDS011;15148;48.972;12.794;2023-08-07T10:07:04;1.30;;;1.17;;
27758;SDS011;15148;48.972;12.794;2023-08-07T10:12:06;2.00;;;1.17;;
27758;SDS011;15148;48.972;12.794;2023-08-07T10:17:08;1.20;;;1.08;;
27758;SDS011;15148;48.972;12.794;2023-08-07T10:22:11;2.42;;;2.00;;
27758;SDS011;15148;48.972;12.794;2023-08-07T10:27:16;1.88;;;1.40;;
27758;SDS011;15148;48.972;12.794;2023-08-07T10:32:20;2.55;;;1.70;;
27758;SDS011;15148;48.972;12.794;2023-08-07T10:48:13;1.70;;;1.60;;
27758;SDS011;15148;48.972;12.794;2023-08-07T10:53:20;3.47;;;1.80;;
27758;SDS011;15148;48.972;12.794;2023-08-07T11:03:30;2.53;;;2.20;;
27758;SDS011;15148;48.972;12.794;2023-08-07T11:08:37;5.10;;;2.15;;
27758;SDS011;15148;48.972;12.794;2023-08-07T11:13:39;2.72;;;2.10;;
27758;SDS011;15148;48.972;12.794;2023-08-07T11:18:41;2.60;;;2.40;;
27758;SDS011;15148;48.972;12.794;2023-08-07T11:23:44;3.65;;;2.20;;
27758;SDS011;15148;48.972;12.794;2023-08-07T11:28:49;4.13;;;2.35;;
27758;SDS011;15148;48.972;12.794;2023-08-07T11:33:51;6.53;;;2.47;;
27758;SDS011;15148;48.972;12.794;2023-08-07T11:38:54;2.80;;;2.50;;
27758;SDS011;15148;48.972;12.794;2023-08-07T11:43:56;2.90;;;2.58;;
27758;SDS011;15148;48.972;12.794;2023-08-07T11:48:58;3.83;;;2.60;;
27758;SDS011;15148;48.972;12.794;2023-08-07T11:54:00;3.45;;;3.15;;
27758;SDS011;15148;48.972;12.794;2023-08-07T11:59:03;3.00;;;2.70;;
27758;SDS011;15148;48.972;12.794;2023-08-07T12:04:08;4.63;;;2.40;;
27758;SDS011;15148;48.972;12.794;2023-08-07T12:09:11;2.20;;;2.00;;
27758;SDS011;15148;48.972;12.794;2023-08-07T12:14:14;3.30;;;2.30;;
27758;SDS011;15148;48.972;12.794;2023-08-07T12:19:18;2.40;;;1.95;;
27758;SDS011;15148;48.972;12.794;2023-08-07T12:24:20;2.42;;;2.22;;
27758;SDS011;15148;48.972;12.794;2023-08-07T12:29:24;3.55;;;2.42;;
27758;SDS011;15148;48.972;12.794;2023-08-07T12:34:30;2.53;;;2.10;;
27758;SDS011;15148;48.972;12.794;2023-08-07T12:39:35;2.22;;;2.08;;
27758;SDS011;15148;48.972;12.794;2023-08-07T12:44:40;2.15;;;1.70;;
27758;SDS011;15148;48.972;12.794;2023-08-07T12:49:41;3.78;;;3.20;;
27758;SDS011;15148;48.972;12.794;2023-08-07T12:54:44;2.63;;;1.92;;
27758;SDS011;15148;48.972;12.794;2023-08-07T12:59:45;2.10;;;1.80;;
27758;SDS011;15148;48.972;12.794;2023-08-07T13:04:47;1.88;;;1.77;;
27758;SDS011;15148;48.972;12.794;2023-08-07T13:09:50;3.13;;;2.10;;
27758;SDS011;15148;48.972;12.794;2023-08-07T13:14:52;8.60;;;5.95;;
27758;SDS011;15148;48.972;12.794;2023-08-07T13:19:54;3.30;;;2.17;;
27758;SDS011;15148;48.972;12.794;2023-08-07T13:24:56;3.80;;;2.20;;
27758;SDS011;15148;48.972;12.794;2023-08-07T13:29:58;6.28;;;2.63;;
27758;SDS011;15148;48.972;12.794;2023-08-07T13:35:00;2.30;;;2.00;;
27758;SDS011;15148;48.972;12.794;2023-08-07T13:40:05;5.43;;;2.20;;
27758;SDS011;15148;48.972;12.794;2023-08-07T13:45:08;3.13;;;2.60;;
27758;SDS011;15148;48.972;12.794;2023-08-07T13:50:11;2.47;;;2.28;;
27758;SDS011;15148;48.972;12.794;2023-08-07T13:55:14;2.20;;;2.00;;
27758;SDS011;15148;48.972;12.794;2023-08-07T14:00:16;3.13;;;2.78;;
27758;SDS011;15148;48.972;12.794;2023-08-07T14:05:19;3.15;;;2.60;;
27758;SDS011;15148;48.972;12.794;2023-08-07T14:10:20;2.45;;;2.25;;
27758;SDS011;15148;48.972;12.794;2023-08-07T14:15:22;3.05;;;2.05;;
27758;SDS011;15148;48.972;12.794;2023-08-07T14:20:26;3.35;;;1.77;;
27758;SDS011;15148;48.972;12.794;2023-08-07T14:25:28;21.90;;;13.88;;
27758;SDS011;15148;48.972;12.794;2023-08-07T14:30:29;2.15;;;1.67;;
27758;SDS011;15148;48.972;12.794;2023-08-07T14:35:31;5.13;;;3.88;;
27758;SDS011;15148;48.972;12.794;2023-08-07T14:40:33;3.03;;;2.15;;
27758;SDS011;15148;48.972;12.794;2023-08-07T14:45:39;5.55;;;2.28;;
27758;SDS011;15148;48.972;12.794;2023-08-07T14:50:41;1.88;;;1.77;;
27758;SDS011;15148;48.972;12.794;2023-08-07T14:55:44;5.18;;;2.15;;
27758;SDS011;15148;48.972;12.794;2023-08-07T15:00:46;3.33;;;1.70;;
27758;SDS011;15148;48.972;12.794;2023-08-07T15:05:48;4.20;;;2.00;;
27758;SDS011;15148;48.972;12.794;2023-08-07T15:10:53;9.27;;;3.60;;
27758;SDS011;15148;48.972;12.794;2023-08-07T15:15:55;3.17;;;1.77;;
27758;SDS011;15148;48.972;12.794;2023-08-07T15:20:59;2.88;;;1.90;;
27758;SDS011;15148;48.972;12.794;2023-08-07T15:26:04;3.22;;;1.90;;
27758;SDS011;15148;48.972;12.794;2023-08-07T15:31:06;2.10;;;1.90;;
27758;SDS011;15148;48.972;12.794;2023-08-07T15:36:08;5.07;;;1.95;;
27758;SDS011;15148;48.972;12.794;2023-08-07T15:41:10;1.88;;;1.30;;
27758;SDS011;15148;48.972;12.794;2023-08-07T15:46:13;7.10;;;2.50;;
27758;SDS011;15148;48.972;12.794;2023-08-07T15:51:15;1.40;;;1.30;;
27758;SDS011;15148;48.972;12.794;2023-08-07T15:56:16;1.95;;;1.65;;
27758;SDS011;15148;48.972;12.794;2023-08-07T16:01:18;1.55;;;1.38;;
27758;SDS011;15148;48.972;12.794;2023-08-07T16:06:20;1.20;;;1.10;;
27758;SDS011;15148;48.972;12.794;2023-08-07T16:11:23;1.77;;;1.50;;
27758;SDS011;15148;48.972;12.794;2023-08-07T16:16:25;6.22;;;3.38;;
27758;SDS011;15148;48.972;12.794;2023-08-07T16:21:27;2.10;;;1.67;;
27758;SDS011;15148;48.972;12.794;2023-08-07T16:26:28;3.20;;;1.60;;
27758;SDS011;15148;48.972;12.794;2023-08-07T16:31:30;2.03;;;1.55;;
27758;SDS011;15148;48.972;12.794;2023-08-07T16:36:32;5.03;;;1.75;;
27758;SDS011;15148;48.972;12.794;2023-08-07T16:41:34;2.00;;;1.80;;
27758;SDS011;15148;48.972;12.794;2023-08-07T16:46:36;17.05;;;15.27;;
27758;SDS011;15148;48.972;12.794;2023-08-07T16:51:38;9.65;;;8.65;;
27758;SDS011;15148;48.972;12.794;2023-08-07T16:56:40;19.45;;;17.95;;
27758;SDS011;15148;48.972;12.794;2023-08-07T17:01:42;7.93;;;6.07;;
27758;SDS011;15148;48.972;12.794;2023-08-07T17:06:44;4.57;;;4.18;;
27758;SDS011;15148;48.972;12.794;2023-08-07T17:11:46;8.50;;;7.70;;
27758;SDS011;15148;48.972;12.794;2023-08-07T17:16:48;17.85;;;16.00;;
27758;SDS011;15148;48.972;12.794;2023-08-07T17:21:50;10.52;;;9.40;;
27758;SDS011;15148;48.972;12.794;2023-08-07T17:26:52;24.27;;;19.70;;
27758;SDS011;15148;48.972;12.794;2023-08-07T17:31:54;29.58;;;22.92;;
27758;SDS011;15148;48.972;12.794;2023-08-07T17:36:59;11.30;;;9.32;;
27758;SDS011;15148;48.972;12.794;2023-08-07T17:42:01;6.72;;;5.25;;
27758;SDS011;15148;48.972;12.794;2023-08-07T17:47:03;17.25;;;13.43;;
27758;SDS011;15148;48.972;12.794;2023-08-07T17:52:06;27.88;;;23.45;;
27758;SDS011;15148;48.972;12.794;2023-08-07T17:57:08;14.15;;;9.15;;
27758;SDS011;15148;48.972;12.794;2023-08-07T18:02:10;11.15;;;9.43;;
27758;SDS011;15148;48.972;12.794;2023-08-07T18:07:12;7.47;;;6.30;;
27758;SDS011;15148;48.972;12.794;2023-08-07T18:12:15;15.77;;;13.45;;
27758;SDS011;15148;48.972;12.794;2023-08-07T18:17:17;13.38;;;9.00;;
27758;SDS011;15148;48.972;12.794;2023-08-07T18:22:19;4.45;;;3.25;;
27758;SDS011;15148;48.972;12.794;2023-08-07T18:27:21;8.77;;;5.13;;
27758;SDS011;15148;48.972;12.794;2023-08-07T18:32:24;4.22;;;3.55;;
27758;SDS011;15148;48.972;12.794;2023-08-07T18:37:26;3.38;;;3.08;;
27758;SDS011;15148;48.972;12.794;2023-08-07T18:42:28;7.00;;;4.95;;
27758;SDS011;15148;48.972;12.794;2023-08-07T18:47:30;3.38;;;2.60;;
27758;SDS011;15148;48.972;12.794;2023-08-07T18:52:31;10.63;;;7.80;;
27758;SDS011;15148;48.972;12.794;2023-08-07T18:57:33;4.35;;;2.60;;
27758;SDS011;15148;48.972;12.794;2023-08-07T19:02:36;3.33;;;2.50;;
27758;SDS011;15148;48.972;12.794;2023-08-07T19:07:39;5.40;;;2.58;;
27758;SDS011;15148;48.972;12.794;2023-08-07T19:12:42;5.13;;;2.53;;
27758;SDS011;15148;48.972;12.794;2023-08-07T19:17:43;5.10;;;2.60;;
27758;SDS011;15148;48.972;12.794;2023-08-07T19:22:45;4.88;;;2.60;;
27758;SDS011;15148;48.972;12.794;2023-08-07T19:27:47;6.25;;;2.55;;
27758;SDS011;15148;48.972;12.794;2023-08-07T19:32:49;5.25;;;2.50;;
27758;SDS011;15148;48.972;12.794;2023-08-07T19:37:51;3.20;;;2.70;;
27758;SDS011;15148;48.972;12.794;2023-08-07T19:42:53;3.97;;;2.38;;
27758;SDS011;15148;48.972;12.794;2023-08-07T19:47:55;2.25;;;2.05;;
27758;SDS011;15148;48.972;12.794;2023-08-07T19:53:00;7.55;;;5.07;;
27758;SDS011;15148;48.972;12.794;2023-08-07T19:58:03;6.40;;;2.25;;
27758;SDS011;15148;48.972;12.794;2023-08-07T20:03:06;4.68;;;2.40;;
27758;SDS011;15148;48.972;12.794;2023-08-07T20:08:08;5.25;;;2.47;;
27758;SDS011;15148;48.972;12.794;2023-08-07T20:13:11;3.47;;;2.70;;
27758;SDS011;15148;48.972;12.794;2023-08-07T20:18:13;6.13;;;2.40;;
27758;SDS011;15148;48.972;12.794;2023-08-07T20:23:15;3.00;;;2.33;;
27758;SDS011;15148;48.972;12.794;2023-08-07T20:28:17;3.70;;;3.00;;
27758;SDS011;15148;48.972;12.794;2023-08-07T20:33:18;4.70;;;2.85;;
27758;SDS011;15148;48.972;12.794;2023-08-07T20:38:20;3.83;;;2.50;;
27758;SDS011;15148;48.972;12.794;2023-08-07T20:43:22;3.75;;;2.40;;
27758;SDS011;15148;48.972;12.794;2023-08-07T20:48:24;7.05;;;3.10;;
27758;SDS011;15148;48.972;12.794;2023-08-07T20:53:26;4.50;;;3.75;;
27758;SDS011;15148;48.972;12.794;2023-08-07T20:58:28;4.38;;;2.65;;
27758;SDS011;15148;48.972;12.794;2023-08-07T21:03:32;6.63;;;4.32;;
27758;SDS011;15148;48.972;12.794;2023-08-07T21:08:34;5.35;;;2.67;;
27758;SDS011;15148;48.972;12.794;2023-08-07T21:13:36;5.22;;;2.40;;
27758;SDS011;15148;48.972;12.794;2023-08-07T21:18:39;7.07;;;2.78;;
27758;SDS011;15148;48.972;12.794;2023-08-07T21:23:41;4.93;;;2.67;;
27758;SDS011;15148;48.972;12.794;2023-08-07T21:28:43;2.97;;;2.67;;
27758;SDS011;15148;48.972;12.794;2023-08-07T21:33:45;4.47;;;3.10;;
27758;SDS011;15148;48.972;12.794;2023-08-07T21:38:47;2.67;;;2.47;;
27758;SDS011;15148;48.972;12.794;2023-08-07T21:43:49;6.35;;;2.63;;
27758;SDS011;15148;48.972;12.794;2023-08-07T21:48:51;2.97;;;2.60;;
27758;SDS011;15148;48.972;12.794;2023-08-07T21:53:53;3.17;;;2.22;;
27758;SDS011;15148;48.972;12.794;2023-08-07T21:58:55;2.92;;;2.60;;
27758;SDS011;15148;48.972;12.794;2023-08-07T22:03:57;4.32;;;3.00;;
27758;SDS011;15148;48.972;12.794;2023-08-07T22:08:59;2.55;;;2.35;;
27758;SDS011;15148;48.972;12.794;2023-08-07T22:14:01;4.55;;;2.63;;
27758;SDS011;15148;48.972;12.794;2023-08-07T22:19:04;6.00;;;2.88;;
27758;SDS011;15148;48.972;12.794;2023-08-07T22:24:07;3.30;;;2.90;;
27758;SDS011;15148;48.972;12.794;2023-08-07T22:29:09;2.88;;;2.55;;
27758;SDS011;15148;48.972;12.794;2023-08-07T22:34:10;3.45;;;3.15;;
27758;SDS011;15148;48.972;12.794;2023-08-07T22:39:12;3.72;;;2.90;;
27758;SDS011;15148;48.972;12.794;2023-08-07T22:44:14;6.38;;;3.40;;
27758;SDS011;15148;48.972;12.794;2023-08-07T22:49:16;3.45;;;3.15;;
27758;SDS011;15148;48.972;12.794;2023-08-07T22:54:21;4.60;;;3.03;;
27758;SDS011;15148;48.972;12.794;2023-08-07T22:59:23;5.13;;;2.70;;
27758;SDS011;15148;48.972;12.794;2023-08-07T23:04:25;3.13;;;2.92;;
27758;SDS011;15148;48.972;12.794;2023-08-07T23:09:26;4.47;;;3.03;;
27758;SDS011;15148;48.972;12.794;2023-08-07T23:14:28;4.80;;;2.95;;
27758;SDS011;15148;48.972;12.794;2023-08-07T23:19:31;4.30;;;3.42;;
27758;SDS011;15148;48.972;12.794;2023-08-07T23:24:33;4.10;;;3.45;;
27758;SDS011;15148;48.972;12.794;2023-08-07T23:29:35;5.65;;;3.03;;
27758;SDS011;15148;48.972;12.794;2023-08-07T23:34:39;5.65;;;3.00;;
27758;SDS011;15148;48.972;12.794;2023-08-07T23:39:41;5.32;;;2.95;;
27758;SDS011;15148;48.972;12.794;2023-08-07T23:44:43;3.97;;;3.08;;
27758;SDS011;15148;48.972;12.794;2023-08-07T23:49:45;3.70;;;2.53;;
27758;SDS011;15148;48.972;12.794;2023-08-07T23:54:47;3.13;;;2.83;;
27758;SDS011;15148;48.972;12.794;2023-08-07T23:59:49;3.38;;;3.05;;
